Time;durP1;ratioP1;P1;durP2;ratioP2;P2;SDS_P1;SDS_P2;PMS_P1;PMS_P2;Temp;Humidity;BMP_temperature;BMP_pressure;BME280_temperature;BME280_humidity;BME280_pressure;Samples;Min_cycle;Max_cycle;Signal;HPM_P1;HPM_P2
2022/08/16 00:00:44;;;;;;;14.40;9.35;;;;;;;20.27;86.04;98464.50;8385193;28;20045;-77
2022/08/16 00:04:45;;;;;;;12.63;10.07;;;;;;;20.27;86.14;98467.25;8391318;28;20076;-77
2022/08/16 00:08:46;;;;;;;12.35;8.85;;;;;;;20.27;85.78;98467.25;8370458;28;20132;-76
2022/08/16 00:12:47;;;;;;;11.07;9.27;;;;;;;20.27;85.75;98456.28;8387070;28;20049;-77
2022/08/16 00:16:49;;;;;;;15.32;9.18;;;;;;;20.27;85.78;98450.78;8375084;28;20059;-77
2022/08/16 00:20:50;;;;;;;11.77;8.77;;;;;;;20.27;86.09;98460.97;8368079;28;20060;-76
2022/08/16 00:24:52;;;;;;;13.75;8.80;;;;;;;20.28;86.08;98468.03;8389318;28;20540;-77
2022/08/16 00:28:53;;;;;;;12.18;9.07;;;;;;;20.26;86.23;98465.66;8375030;28;20076;-77
2022/08/16 00:32:57;;;;;;;12.80;8.63;;;;;;;20.23;86.40;98458.22;8385978;28;20049;-76
2022/08/16 00:36:58;;;;;;;11.85;9.60;;;;;;;20.19;86.54;98460.19;8382319;28;20057;-76
2022/08/16 00:41:00;;;;;;;13.40;10.15;;;;;;;20.12;86.79;98460.16;8391012;28;20416;-77
2022/08/16 00:45:31;;;;;;;21.60;10.23;;;;;;;20.05;87.02;98460.13;8378718;28;20136;-77
2022/08/16 00:49:33;;;;;;;16.10;9.68;;;;;;;19.97;87.25;98455.78;8224152;28;20051;-77
2022/08/16 00:53:34;;;;;;;15.30;9.52;;;;;;;19.90;87.51;98469.47;8213735;28;20110;-77
2022/08/16 00:57:36;;;;;;;10.50;8.30;;;;;;;19.83;87.79;98463.97;8208515;28;20150;-77
2022/08/16 01:01:37;;;;;;;14.05;9.15;;;;;;;19.79;87.77;98469.41;8221563;28;20081;-77
2022/08/16 01:05:40;;;;;;;17.17;9.70;;;;;;;19.73;88.22;98471.75;8210911;28;20133;-76
2022/08/16 01:09:41;;;;;;;15.85;9.85;;;;;;;19.72;88.13;98480.38;8223538;28;20062;-77
2022/08/16 01:13:45;;;;;;;13.60;9.05;;;;;;;19.72;88.09;98483.84;8235648;28;20058;-76
2022/08/16 01:17:47;;;;;;;12.07;9.18;;;;;;;19.68;88.05;98480.31;8200011;28;20487;-76
2022/08/16 01:21:56;;;;;;;14.10;9.18;;;;;;;19.66;88.07;98488.16;8211753;28;20055;-77
2022/08/16 01:25:58;;;;;;;19.05;8.80;;;;;;;19.65;87.90;98486.59;8284869;28;20044;-77
2022/08/16 01:30:07;;;;;;;11.30;8.85;;;;;;;19.62;87.93;98486.53;8383924;28;20080;-77
2022/08/16 01:34:07;;;;;;;;;;;;;;;19.59;87.72;98479.91;8362580;28;20361;-76
2022/08/16 01:38:23;;;;;;;12.05;9.35;;;;;;;19.57;87.75;98484.97;8348060;28;19921;-77
2022/08/16 01:42:24;;;;;;;15.95;9.52;;;;;;;19.52;87.84;98482.59;8394225;28;20487;-77
2022/08/16 01:46:32;;;;;;;15.13;9.00;;;;;;;19.44;88.22;98480.97;8376596;28;20109;-77
2022/08/16 01:50:33;;;;;;;13.50;9.57;;;;;;;19.41;88.29;98476.22;8379976;28;20110;-78
2022/08/16 01:54:34;;;;;;;15.05;9.10;;;;;;;19.35;88.76;98483.25;8382308;28;20052;-77
2022/08/16 01:58:35;;;;;;;12.60;9.05;;;;;;;19.27;89.12;98487.09;8341018;28;20049;-76
2022/08/16 02:02:36;;;;;;;13.63;9.00;;;;;;;19.15;89.38;98485.44;8399093;28;20049;-77
2022/08/16 02:06:39;;;;;;;17.42;9.93;;;;;;;19.04;90.12;98483.78;8389241;28;20490;-77
2022/08/16 02:10:40;;;;;;;12.88;8.68;;;;;;;18.95;90.51;98493.13;8391854;28;20504;-77
2022/08/16 02:14:42;;;;;;;13.80;9.55;;;;;;;18.88;90.74;98504.00;8391980;28;20514;-77
2022/08/16 02:18:43;;;;;;;13.60;10.07;;;;;;;18.84;90.98;98488.72;8397774;28;20518;-76
2022/08/16 02:22:44;;;;;;;15.88;10.18;;;;;;;18.79;91.37;98492.59;8398026;28;20052;-77
2022/08/16 02:26:45;;;;;;;19.67;11.63;;;;;;;18.77;91.26;98486.69;8389858;28;20049;-77
2022/08/16 02:30:46;;;;;;;13.18;10.38;;;;;;;18.74;91.43;98492.94;8394542;28;20587;-76
2022/08/16 02:34:47;;;;;;;13.98;10.75;;;;;;;18.68;91.73;98494.44;8397663;28;20082;-77
2022/08/16 02:38:48;;;;;;;15.45;11.38;;;;;;;18.64;92.05;98504.56;8394731;28;20056;-77
2022/08/16 02:42:50;;;;;;;15.70;11.43;;;;;;;18.63;92.15;98502.19;8394275;28;20135;-77
2022/08/16 02:46:51;;;;;;;19.40;11.85;;;;;;;18.58;92.16;98495.13;8397705;28;20051;-78
2022/08/16 02:50:52;;;;;;;19.20;11.45;;;;;;;18.51;92.67;98500.50;8403396;28;20041;-78
2022/08/16 02:54:53;;;;;;;17.80;12.02;;;;;;;18.46;92.83;98498.09;8398966;28;20051;-77
2022/08/16 02:58:54;;;;;;;19.48;12.23;;;;;;;18.43;92.96;98496.13;8397860;28;20065;-78
2022/08/16 03:02:55;;;;;;;22.60;12.15;;;;;;;18.40;93.17;98494.16;8345821;28;20048;-77
2022/08/16 03:06:56;;;;;;;19.60;12.40;;;;;;;18.40;93.44;98499.63;8409836;28;20514;-78
2022/08/16 03:10:57;;;;;;;19.80;12.63;;;;;;;18.37;93.61;98505.81;8339604;28;20041;-77
2022/08/16 03:14:59;;;;;;;17.63;12.73;;;;;;;18.34;93.83;98506.56;8386220;28;20055;-77
2022/08/16 03:18:59;;;;;;;18.23;12.52;;;;;;;18.31;94.17;98507.31;8396985;28;20045;-77
2022/08/16 03:23:01;;;;;;;16.42;11.98;;;;;;;18.30;94.17;98516.66;8397091;28;20044;-77
2022/08/16 03:27:02;;;;;;;18.75;12.88;;;;;;;18.35;94.66;98530.00;8386780;28;20037;-77
2022/08/16 03:31:05;;;;;;;21.23;13.38;;;;;;;18.37;94.81;98522.22;8382350;28;20465;-77
2022/08/16 03:35:07;;;;;;;18.90;13.48;;;;;;;18.37;94.86;98520.28;8384556;28;20053;-77
2022/08/16 03:39:09;;;;;;;20.52;12.60;;;;;;;18.36;95.15;98531.56;8354795;28;20048;-77
2022/08/16 03:43:11;;;;;;;18.30;13.63;;;;;;;18.35;95.34;98541.72;8382644;28;20052;-77
2022/08/16 03:47:13;;;;;;;18.30;13.13;;;;;;;18.34;95.34;98542.13;8375199;28;20041;-77
2022/08/16 03:51:14;;;;;;;16.48;12.70;;;;;;;18.30;95.46;98539.31;8385524;28;20520;-77
2022/08/16 03:55:15;;;;;;;17.15;13.15;;;;;;;18.30;95.43;98544.00;8393480;28;20063;-77
2022/08/16 03:59:16;;;;;;;17.08;12.30;;;;;;;18.28;95.45;98546.34;8391960;28;20048;-77
2022/08/16 04:03:17;;;;;;;20.75;12.88;;;;;;;18.24;95.67;98556.44;8396463;28;20496;-77
2022/08/16 04:07:18;;;;;;;14.65;12.38;;;;;;;18.22;95.69;98558.75;8357286;28;20106;-78
2022/08/16 04:11:19;;;;;;;18.33;12.93;;;;;;;18.17;95.93;98561.81;8361219;28;20048;-77
2022/08/16 04:15:20;;;;;;;16.90;12.63;;;;;;;18.17;95.93;98568.06;8344862;28;20465;-78
2022/08/16 04:19:24;;;;;;;24.02;13.20;;;;;;;18.21;95.88;98573.56;8395487;28;20043;-77
2022/08/16 04:23:25;;;;;;;19.25;12.52;;;;;;;18.23;95.94;98582.19;8360399;28;20496;-77
2022/08/16 04:27:27;;;;;;;20.30;12.48;;;;;;;18.26;95.78;98592.38;8394050;28;20093;-77
2022/08/16 04:31:28;;;;;;;17.63;11.52;;;;;;;18.29;95.79;98586.19;8359707;28;20053;-77
2022/08/16 04:35:29;;;;;;;18.02;11.27;;;;;;;18.32;95.81;98591.69;8381981;28;20127;-77
2022/08/16 04:39:31;;;;;;;17.67;11.68;;;;;;;18.37;95.66;98598.75;8385536;28;20064;-77
2022/08/16 04:43:37;;;;;;;21.08;11.25;;;;;;;18.44;95.74;98593.38;8395807;28;20158;-77
2022/08/16 04:47:38;;;;;;;14.75;10.93;;;;;;;18.53;95.60;98585.69;8395493;28;20129;-77
2022/08/16 04:51:42;;;;;;;16.67;11.15;;;;;;;18.61;95.26;98592.06;8395390;28;20504;-77
2022/08/16 04:55:43;;;;;;;17.40;11.80;;;;;;;18.69;95.30;98582.75;8381724;28;20040;-77
2022/08/16 04:59:44;;;;;;;13.55;10.02;;;;;;;18.77;95.17;98585.19;8383966;28;20041;-77
2022/08/16 05:03:46;;;;;;;16.58;11.32;;;;;;;18.84;94.77;98579.78;8329237;28;20119;-77
2022/08/16 05:07:47;;;;;;;15.05;10.55;;;;;;;18.90;94.63;98589.22;8381368;28;20045;-77
2022/08/16 05:11:48;;;;;;;13.25;10.85;;;;;;;18.97;94.57;98583.84;8376393;28;20056;-76
2022/08/16 05:15:49;;;;;;;24.10;11.90;;;;;;;19.06;94.58;98588.19;8377230;28;20123;-77
2022/08/16 05:19:50;;;;;;;15.75;10.85;;;;;;;19.13;94.25;98585.53;8384695;28;20419;-77
2022/08/16 05:23:52;;;;;;;16.05;11.13;;;;;;;19.24;94.12;98597.38;8395340;28;20048;-76
2022/08/16 05:27:54;;;;;;;15.02;10.32;;;;;;;19.35;94.29;98609.19;8394699;28;20068;-77
2022/08/16 05:31:55;;;;;;;14.90;10.18;;;;;;;19.51;93.07;98601.50;8397420;28;20056;-77
2022/08/16 05:35:56;;;;;;;14.27;10.02;;;;;;;19.64;92.25;98605.53;8401121;28;20053;-77
2022/08/16 05:39:57;;;;;;;16.50;9.75;;;;;;;19.73;91.73;98603.25;8397165;28;20049;-78
2022/08/16 05:44:01;;;;;;;14.57;9.60;;;;;;;19.83;90.66;98612.69;8382803;28;20079;-76
2022/08/16 05:48:03;;;;;;;15.02;9.48;;;;;;;19.92;89.90;98606.91;8352491;28;20041;-78
2022/08/16 05:52:03;;;;;;;13.32;9.30;;;;;;;20.02;89.09;98617.91;8360148;28;20049;-77
2022/08/16 05:56:05;;;;;;;13.13;9.45;;;;;;;20.10;88.80;98615.97;8355214;28;20140;-77
2022/08/16 06:00:09;;;;;;;12.77;9.20;;;;;;;20.18;88.73;98617.63;8400447;28;20056;-77
2022/08/16 06:04:12;;;;;;;14.45;8.75;;;;;;;20.27;87.99;98615.28;8359231;28;20045;-77
2022/08/16 06:08:13;;;;;;;14.13;9.10;;;;;;;20.37;87.55;98622.81;8391996;28;20098;-78
2022/08/16 06:12:15;;;;;;;22.80;9.02;;;;;;;20.48;86.27;98618.16;8397880;28;20056;-77
2022/08/16 06:16:16;;;;;;;11.85;8.48;;;;;;;20.55;85.37;98620.94;8374086;28;20094;-78
2022/08/16 06:20:23;;;;;;;10.73;8.13;;;;;;;20.65;84.23;98622.94;8399809;28;20049;-77
2022/08/16 06:24:24;;;;;;;10.68;8.55;;;;;;;20.73;84.76;98620.22;8414076;28;20111;-78
2022/08/16 06:28:25;;;;;;;11.90;8.88;;;;;;;20.82;83.95;98620.63;8399340;28;20048;-78
2022/08/16 06:32:26;;;;;;;11.93;8.48;;;;;;;20.95;83.92;98632.81;8366095;28;20058;-78
2022/08/16 06:36:28;;;;;;;10.32;8.63;;;;;;;21.03;83.73;98623.44;8399134;28;20167;-78
2022/08/16 06:40:29;;;;;;;13.75;9.13;;;;;;;21.09;84.35;98632.84;8388065;28;20041;-77
2022/08/16 06:44:30;;;;;;;10.77;8.77;;;;;;;21.13;84.63;98633.63;8372821;28;20040;-77
2022/08/16 06:48:32;;;;;;;12.98;9.65;;;;;;;21.23;84.57;98638.38;8398255;28;20488;-78
2022/08/16 06:52:35;;;;;;;15.45;9.40;;;;;;;21.41;83.34;98644.66;8398663;28;20046;-78
2022/08/16 06:56:36;;;;;;;11.32;9.35;;;;;;;21.53;82.72;98645.47;8398394;28;20045;-77
2022/08/16 07:00:37;;;;;;;13.82;9.40;;;;;;;21.62;82.91;98648.63;8383724;28;20049;-78
2022/08/16 07:04:41;;;;;;;14.98;9.20;;;;;;;21.72;83.29;98650.56;8398349;28;20122;-78
2022/08/16 07:08:42;;;;;;;15.32;9.80;;;;;;;21.84;82.00;98655.66;8397016;28;20040;-78
2022/08/16 07:12:42;;;;;;;15.60;9.73;;;;;;;21.96;81.91;98652.53;8384896;28;20101;-77
2022/08/16 07:16:44;;;;;;;15.68;9.25;;;;;;;22.10;81.82;98663.50;8397726;28;20495;-78
2022/08/16 07:20:46;;;;;;;12.30;8.90;;;;;;;22.22;81.09;98660.34;8397408;28;20292;-76
2022/08/16 07:24:47;;;;;;;11.82;9.35;;;;;;;22.29;81.87;98663.09;8383270;28;20036;-78
2022/08/16 07:28:48;;;;;;;11.40;9.02;;;;;;;22.39;80.87;98658.72;8397147;28;20047;-78
2022/08/16 07:32:49;;;;;;;13.82;9.35;;;;;;;22.51;79.15;98660.25;8396712;28;20411;-78
2022/08/16 07:36:50;;;;;;;13.35;8.90;;;;;;;22.61;79.14;98659.44;8396878;28;20055;-79
2022/08/16 07:40:51;;;;;;;13.27;8.82;;;;;;;22.70;78.52;98657.03;8382738;28;20044;-78
2022/08/16 07:44:52;;;;;;;13.98;9.65;;;;;;;22.82;78.44;98653.88;8382510;28;20514;-78
2022/08/16 07:48:53;;;;;;;12.20;9.57;;;;;;;22.93;78.05;98654.59;8382534;28;20052;-77
2022/08/16 07:52:54;;;;;;;13.15;9.70;;;;;;;23.00;77.55;98665.56;8385723;28;20467;-76
2022/08/16 07:56:58;;;;;;;11.05;8.63;;;;;;;23.07;76.89;98665.53;8357902;28;20068;-76
2022/08/16 08:01:00;;;;;;;16.23;9.10;;;;;;;23.16;76.66;98665.06;8388947;28;20052;-78
2022/08/16 08:05:02;;;;;;;12.95;9.65;;;;;;;23.27;76.41;98670.50;8376379;28;20044;-77
2022/08/16 08:09:03;;;;;;;17.83;10.48;;;;;;;23.37;75.96;98677.94;8378116;28;20045;-77
2022/08/16 08:13:04;;;;;;;19.65;10.02;;;;;;;23.46;75.98;98672.78;8386010;28;20090;-78
2022/08/16 08:17:06;;;;;;;16.02;10.07;;;;;;;23.61;74.60;98671.50;8395693;28;20124;-77
2022/08/16 08:21:09;;;;;;;17.10;9.82;;;;;;;23.68;74.00;98676.97;8390488;28;20041;-77
2022/08/16 08:25:10;;;;;;;15.48;9.90;;;;;;;23.76;74.31;98686.72;8387437;28;20511;-77
2022/08/16 08:29:11;;;;;;;15.00;10.45;;;;;;;23.90;74.28;98681.09;8367493;28;20049;-77
2022/08/16 08:33:12;;;;;;;17.80;9.95;;;;;;;24.03;74.06;98697.13;8395349;28;20061;-78
2022/08/16 08:37:15;;;;;;;13.68;10.43;;;;;;;24.10;74.79;98702.59;8395325;28;20044;-77
2022/08/16 08:41:16;;;;;;;12.75;9.38;;;;;;;24.19;72.23;98700.16;8382150;28;20488;-77
2022/08/16 08:45:17;;;;;;;12.43;9.95;;;;;;;24.27;72.49;98709.97;8394286;28;20048;-78
2022/08/16 08:49:18;;;;;;;22.25;9.80;;;;;;;24.44;73.42;98706.22;8395460;28;20048;-77
2022/08/16 08:53:19;;;;;;;15.38;9.60;;;;;;;24.57;72.75;98710.03;8380822;28;20049;-77
2022/08/16 08:57:20;;;;;;;14.45;10.65;;;;;;;24.66;70.77;98707.53;8395235;28;20404;-76
2022/08/16 09:01:29;;;;;;;11.50;9.70;;;;;;;24.76;70.41;98705.84;8365633;28;20053;-78
2022/08/16 09:05:30;;;;;;;;;;;;;;;24.91;69.85;98709.25;8393475;28;20128;-77
2022/08/16 09:09:31;;;;;;;13.63;10.23;;;;;;;25.07;70.44;98714.94;8394211;28;19921;-77
2022/08/16 09:13:32;;;;;;;13.93;10.43;;;;;;;25.19;70.24;98714.41;8395021;28;20048;-78
2022/08/16 09:17:33;;;;;;;14.68;9.98;;;;;;;25.34;70.01;98714.97;8366071;28;20040;-77
2022/08/16 09:21:36;;;;;;;14.57;10.02;;;;;;;25.45;68.86;98716.41;8401184;28;20064;-76
2022/08/16 09:25:37;;;;;;;18.20;9.55;;;;;;;25.61;68.87;98721.31;8400879;28;20048;-78
2022/08/16 09:29:38;;;;;;;20.00;10.00;;;;;;;25.67;67.13;98729.94;8400655;28;20048;-77
2022/08/16 09:33:40;;;;;;;14.27;9.43;;;;;;;25.77;66.73;98728.97;8386575;28;20056;-77
2022/08/16 09:37:42;;;;;;;15.50;9.98;;;;;;;25.93;66.50;98716.06;8348311;28;20118;-78
2022/08/16 09:41:44;;;;;;;14.38;9.23;;;;;;;26.03;64.29;98709.56;8400274;28;20049;-77
2022/08/16 09:45:45;;;;;;;11.48;8.27;;;;;;;26.11;63.89;98710.25;8400574;28;20044;-78
2022/08/16 09:49:46;;;;;;;14.73;8.95;;;;;;;26.20;63.75;98718.78;8400840;28;20059;-77
2022/08/16 09:53:48;;;;;;;12.25;8.85;;;;;;;26.32;63.49;98712.66;8381201;28;20044;-78
2022/08/16 09:57:50;;;;;;;12.93;9.23;;;;;;;26.47;63.90;98716.72;8400312;28;20052;-77
2022/08/16 10:01:52;;;;;;;16.60;9.05;;;;;;;26.55;62.94;98716.56;8399993;28;20052;-78
2022/08/16 10:05:53;;;;;;;15.25;9.48;;;;;;;26.64;62.67;98725.13;8297086;28;20528;-77
2022/08/16 10:09:53;;;;;;;13.05;9.25;;;;;;;26.75;61.99;98728.47;8297371;28;20058;-78
2022/08/16 10:13:54;;;;;;;12.35;8.88;;;;;;;26.84;61.53;98712.06;8283144;28;20559;-77
2022/08/16 10:17:55;;;;;;;12.63;9.02;;;;;;;26.96;61.00;98724.50;8288462;28;20050;-78
2022/08/16 10:21:57;;;;;;;10.23;9.13;;;;;;;27.03;60.62;98725.13;8289433;28;20050;-76
2022/08/16 10:25:57;;;;;;;14.20;8.50;;;;;;;27.16;60.51;98723.28;8260845;28;20125;-76
2022/08/16 10:29:59;;;;;;;12.93;9.10;;;;;;;27.18;60.19;98720.84;8285436;28;20057;-78
2022/08/16 10:34:00;;;;;;;11.60;9.18;;;;;;;27.22;59.72;98727.09;8296314;28;20050;-78
2022/08/16 10:38:01;;;;;;;15.50;8.85;;;;;;;27.34;60.42;98724.88;8295891;28;20517;-76
2022/08/16 10:42:02;;;;;;;12.98;9.50;;;;;;;27.47;59.57;98725.75;8335114;28;20048;-77
2022/08/16 10:46:06;;;;;;;12.65;9.55;;;;;;;27.44;58.95;98726.63;8398848;28;20139;-78
2022/08/16 10:50:08;;;;;;;11.80;9.55;;;;;;;27.53;58.44;98724.06;8398688;28;20048;-77
2022/08/16 10:54:09;;;;;;;13.80;8.70;;;;;;;27.67;59.63;98729.28;8398526;28;20075;-77
2022/08/16 10:58:13;;;;;;;11.45;9.10;;;;;;;27.89;59.20;98724.00;8398385;28;20416;-76
2022/08/16 11:02:14;;;;;;;13.32;8.82;;;;;;;27.95;58.65;98723.06;8346032;28;20506;-76
2022/08/16 11:06:15;;;;;;;12.35;8.13;;;;;;;28.06;58.16;98718.03;8398181;28;20048;-77
2022/08/16 11:10:19;;;;;;;14.13;9.57;;;;;;;28.11;56.76;98714.72;8397780;28;20059;-77
2022/08/16 11:14:20;;;;;;;15.93;8.43;;;;;;;28.12;56.20;98716.31;8384052;28;20045;-77
2022/08/16 11:18:22;;;;;;;10.95;7.70;;;;;;;28.14;53.91;98708.31;8397515;28;20090;-77
2022/08/16 11:22:23;;;;;;;14.00;9.07;;;;;;;28.28;53.08;98723.06;8397244;28;20048;-78
2022/08/16 11:26:24;;;;;;;10.82;8.15;;;;;;;28.38;54.37;98710.88;8371743;28;20052;-76
2022/08/16 11:30:26;;;;;;;10.35;7.78;;;;;;;28.51;53.50;98720.03;8337781;28;20504;-77
2022/08/16 11:34:27;;;;;;;11.23;8.60;;;;;;;28.55;53.05;98723.53;8393951;28;20052;-76
2022/08/16 11:38:29;;;;;;;10.73;7.80;;;;;;;28.58;52.92;98722.63;8381959;28;20045;-78
2022/08/16 11:42:30;;;;;;;8.95;7.68;;;;;;;28.61;51.91;98730.06;8369320;28;20045;-77
2022/08/16 11:46:33;;;;;;;13.82;8.77;;;;;;;28.70;52.04;98719.13;8396819;28;20044;-76
2022/08/16 11:50:35;;;;;;;9.48;7.63;;;;;;;28.72;50.41;98719.47;8396695;28;20059;-77
2022/08/16 11:54:36;;;;;;;11.98;7.43;;;;;;;28.84;49.71;98715.19;8396551;28;20131;-78
2022/08/16 11:58:38;;;;;;;9.20;7.78;;;;;;;29.00;49.96;98717.09;8394427;28;20081;-78
2022/08/16 12:02:39;;;;;;;11.88;7.97;;;;;;;29.05;49.27;98719.34;8356334;28;20067;-77
2022/08/16 12:06:42;;;;;;;9.68;7.85;;;;;;;29.04;49.55;98717.78;8396103;28;20041;-78
2022/08/16 12:10:46;;;;;;;10.98;7.65;;;;;;;29.22;50.02;98718.03;8382109;28;20040;-76
2022/08/16 12:14:47;;;;;;;15.02;7.85;;;;;;;29.43;49.99;98711.84;8395960;28;20052;-77
2022/08/16 12:18:48;;;;;;;11.68;7.50;;;;;;;29.47;48.86;98712.50;8395667;28;20072;-78
2022/08/16 12:22:50;;;;;;;13.32;7.95;;;;;;;29.46;49.17;98710.94;8395605;28;20040;-77
2022/08/16 12:26:52;;;;;;;11.05;7.47;;;;;;;29.57;48.81;98711.41;8395518;28;20051;-77
2022/08/16 12:30:54;;;;;;;10.95;7.32;;;;;;;29.71;48.22;98708.19;8393826;28;20105;-76
2022/08/16 12:34:54;;;;;;;8.40;7.22;;;;;;;29.80;48.18;98708.28;8384708;28;20465;-77
2022/08/16 12:38:56;;;;;;;12.23;6.70;;;;;;;29.82;46.01;98704.28;8395192;28;20059;-78
2022/08/16 12:42:59;;;;;;;8.07;6.85;;;;;;;29.69;45.85;98701.50;8394606;28;20075;-78
2022/08/16 12:51:23;;;;;;;10.07;7.03;;;;;;;29.88;45.24;98685.75;8359826;28;20139;-78
2022/08/16 12:55:24;;;;;;;17.15;7.50;;;;;;;29.82;44.30;98687.56;8394759;28;20053;-78
2022/08/16 12:59:25;;;;;;;9.50;6.28;;;;;;;29.89;46.09;98681.75;8395303;28;20047;-77
2022/08/16 13:03:27;;;;;;;7.50;6.28;;;;;;;30.02;46.01;98690.91;8376064;28;20047;-77
2022/08/16 13:07:30;;;;;;;10.98;7.25;;;;;;;30.00;44.12;98682.19;8380796;28;20218;-77
2022/08/16 13:11:39;;;;;;;10.85;7.03;;;;;;;29.96;43.01;98687.13;8394783;28;20064;-76
2022/08/16 13:15:40;;;;;;;10.93;7.10;;;;;;;30.05;44.86;98687.97;8377333;28;20076;-77
2022/08/16 13:19:41;;;;;;;9.57;6.82;;;;;;;30.08;43.81;98683.53;8395173;28;20067;-77
2022/08/16 13:23:42;;;;;;;8.15;6.30;;;;;;;30.07;44.16;98677.19;8381369;28;20392;-77
2022/08/16 13:27:43;;;;;;;11.52;6.63;;;;;;;30.06;43.77;98681.19;8378445;28;20132;-77
2022/08/16 13:31:44;;;;;;;8.10;6.88;;;;;;;30.49;42.99;98666.56;8394787;28;20052;-77
2022/08/16 13:35:48;;;;;;;8.52;6.82;;;;;;;31.80;41.18;98671.88;8394205;28;20052;-77
2022/08/16 13:39:49;;;;;;;9.38;6.45;;;;;;;33.06;38.99;98661.94;8362522;28;20073;-76
2022/08/16 13:43:51;;;;;;;7.38;6.10;;;;;;;34.07;35.47;98669.88;8394948;28;20112;-78
2022/08/16 13:47:52;;;;;;;8.23;6.20;;;;;;;34.43;35.26;98666.78;8377080;28;20053;-77
2022/08/16 13:51:53;;;;;;;8.77;6.30;;;;;;;35.36;34.83;98666.19;8392419;28;20045;-77
2022/08/16 13:55:55;;;;;;;7.18;6.25;;;;;;;36.49;33.41;98657.97;8388701;28;20156;-77
2022/08/16 13:59:56;;;;;;;9.32;5.47;;;;;;;37.04;32.83;98652.91;8400477;28;20526;-77
2022/08/16 14:03:57;;;;;;;10.88;6.28;;;;;;;37.91;32.38;98650.44;8368047;28;20049;-77
2022/08/16 14:07:58;;;;;;;10.35;5.85;;;;;;;38.20;31.07;98649.31;8389874;28;20411;-77
2022/08/16 14:12:00;;;;;;;9.77;5.03;;;;;;;38.91;30.47;98649.25;8385671;28;20044;-77
2022/08/16 14:16:02;;;;;;;6.35;4.93;;;;;;;39.92;29.40;98645.03;8385892;28;20037;-78
2022/08/16 14:20:04;;;;;;;8.35;5.50;;;;;;;40.29;28.39;98639.72;8380903;28;20063;-77
2022/08/16 14:24:05;;;;;;;8.27;5.82;;;;;;;40.36;27.60;98644.81;8380153;28;20132;-78
2022/08/16 14:28:07;;;;;;;7.90;5.03;;;;;;;40.56;27.00;98645.75;8373018;28;20114;-79
2022/08/16 14:32:08;;;;;;;7.55;4.40;;;;;;;41.09;26.09;98647.94;8398546;28;20080;-78
2022/08/16 14:36:09;;;;;;;7.68;4.75;;;;;;;40.73;26.64;98654.91;8392785;28;20504;-79
2022/08/16 14:40:13;;;;;;;6.55;4.50;;;;;;;41.28;25.70;98648.81;8380124;28;20143;-79
2022/08/16 14:44:14;;;;;;;4.78;4.38;;;;;;;41.45;24.32;98650.72;8389336;28;20056;-78
2022/08/16 14:48:16;;;;;;;9.82;4.63;;;;;;;40.65;25.53;98653.94;8398576;28;20044;-79
2022/08/16 14:52:19;;;;;;;6.10;4.75;;;;;;;39.94;26.58;98648.06;8397562;28;20048;-78
2022/08/16 14:56:20;;;;;;;7.30;4.05;;;;;;;39.22;27.08;98654.63;8384180;28;20040;-78
2022/08/16 15:00:22;;;;;;;5.80;4.43;;;;;;;37.67;28.64;98652.88;8382504;28;20575;-78
2022/08/16 15:04:25;;;;;;;7.20;4.22;;;;;;;36.95;30.82;98649.50;8396267;28;20454;-77
2022/08/16 15:08:25;;;;;;;6.47;4.53;;;;;;;37.07;31.04;98651.13;8397588;28;20053;-77
2022/08/16 15:12:27;;;;;;;12.15;4.93;;;;;;;36.58;30.35;98649.38;8397665;28;20058;-75
2022/08/16 15:16:28;;;;;;;6.32;4.32;;;;;;;35.62;30.08;98654.28;8320264;28;20496;-79
2022/08/16 15:20:31;;;;;;;7.63;4.40;;;;;;;34.72;31.55;98652.84;8384135;28;20488;-80
2022/08/16 15:24:32;;;;;;;6.75;4.10;;;;;;;34.10;32.33;98657.72;8390098;28;20135;-80
2022/08/16 15:28:36;;;;;;;6.45;4.13;;;;;;;33.67;32.98;98654.25;8372555;28;20063;-79
2022/08/16 15:32:37;;;;;;;6.63;4.05;;;;;;;33.19;34.38;98650.59;8378602;28;20052;-79
2022/08/16 15:36:39;;;;;;;5.35;4.00;;;;;;;32.82;35.56;98641.50;8395072;28;20045;-80
2022/08/16 15:40:39;;;;;;;10.55;4.63;;;;;;;32.52;35.17;98645.28;8396478;28;20053;-80
2022/08/16 15:44:42;;;;;;;4.88;3.90;;;;;;;32.21;35.77;98654.59;8396730;28;20056;-78
2022/08/16 15:48:43;;;;;;;6.93;4.57;;;;;;;31.93;36.08;98644.63;8396805;28;20048;-79
2022/08/16 15:52:44;;;;;;;7.57;4.15;;;;;;;31.57;35.49;98655.69;8360574;28;20101;-79
2022/08/16 15:56:45;;;;;;;4.93;4.30;;;;;;;31.41;36.67;98654.69;8380549;28;20468;-79
2022/08/16 16:00:46;;;;;;;8.05;4.70;;;;;;;31.24;37.14;98656.19;8352463;28;20055;-79
2022/08/16 16:04:47;;;;;;;8.90;4.95;;;;;;;31.00;37.77;98652.31;8374445;28;20041;-79
2022/08/16 16:08:48;;;;;;;9.50;4.65;;;;;;;30.85;39.12;98662.47;8345570;28;20102;-79
2022/08/16 16:12:53;;;;;;;7.90;5.15;;;;;;;30.68;38.94;98663.91;8390037;28;20049;-79
2022/08/16 16:16:55;;;;;;;7.13;5.47;;;;;;;30.54;40.30;98670.78;8382594;28;20427;-79
2022/08/16 16:21:00;;;;;;;8.13;4.70;;;;;;;30.28;41.63;98669.31;8386265;28;20045;-79
2022/08/16 16:25:02;;;;;;;12.02;4.45;;;;;;;30.05;42.88;98678.84;8391044;28;20036;-80
2022/08/16 16:29:03;;;;;;;5.90;4.82;;;;;;;29.74;43.61;98671.09;8341399;28;20045;-80
2022/08/16 16:33:04;;;;;;;7.60;4.72;;;;;;;29.54;44.52;98684.47;8368477;28;20059;-80
2022/08/16 16:37:06;;;;;;;7.40;5.10;;;;;;;29.29;45.91;98678.91;8375232;28;20045;-78
2022/08/16 16:41:10;;;;;;;7.15;4.88;;;;;;;29.06;47.00;98676.41;8374697;28;20055;-78
2022/08/16 16:45:11;;;;;;;10.70;5.63;;;;;;;28.79;47.72;98674.81;8394817;28;20106;-78
2022/08/16 16:49:12;;;;;;;11.07;4.90;;;;;;;28.55;48.87;98676.28;8388198;28;20036;-78
2022/08/16 16:53:15;;;;;;;7.03;5.00;;;;;;;28.34;49.90;98676.88;8393402;28;20048;-79
2022/08/16 17:01:38;;;;;;;10.25;5.25;;;;;;;27.96;51.72;98680.22;8393029;28;20059;-78
2022/08/16 17:05:39;;;;;;;10.75;4.97;;;;;;;27.78;52.03;98685.41;8394909;28;20067;-78
2022/08/16 17:09:40;;;;;;;6.47;5.13;;;;;;;27.64;53.19;98685.78;8395209;28;20084;-79
2022/08/16 17:13:42;;;;;;;13.40;5.22;;;;;;;27.47;53.66;98681.41;8385580;28;20040;-79
2022/08/16 17:17:43;;;;;;;8.35;5.05;;;;;;;27.30;54.68;98689.69;8388020;28;20052;-79
2022/08/16 17:21:45;;;;;;;6.75;5.43;;;;;;;27.16;55.31;98690.00;8374035;28;20052;-78
2022/08/16 17:25:45;;;;;;;6.18;5.55;;;;;;;26.98;55.92;98689.59;8394302;28;20065;-79
2022/08/16 17:29:46;;;;;;;8.43;5.43;;;;;;;26.84;56.83;98695.44;8400566;28;20052;-79
2022/08/16 17:33:48;;;;;;;8.10;6.07;;;;;;;26.69;57.54;98706.03;8400454;28;20127;-79
2022/08/16 17:37:50;;;;;;;7.18;5.90;;;;;;;26.53;58.35;98703.19;8399698;28;20063;-79
2022/08/16 17:41:51;;;;;;;12.68;6.55;;;;;;;26.37;58.81;98701.09;8387953;28;20048;-79
2022/08/16 17:45:52;;;;;;;10.98;6.13;;;;;;;26.23;59.54;98706.09;8393531;28;20055;-79
2022/08/16 17:49:53;;;;;;;7.03;5.72;;;;;;;26.04;60.14;98704.81;8397786;28;20045;-78
2022/08/16 17:53:55;;;;;;;9.43;6.35;;;;;;;25.85;60.99;98709.09;8377294;28;20477;-78
2022/08/16 17:57:56;;;;;;;10.35;6.85;;;;;;;25.71;61.58;98714.06;8393575;28;20052;-78
2022/08/16 18:01:57;;;;;;;9.38;7.38;;;;;;;25.53;62.06;98712.34;8401131;28;20052;-78
2022/08/16 18:05:58;;;;;;;14.15;9.15;;;;;;;25.37;62.69;98709.44;8370172;28;20043;-78
2022/08/16 18:09:59;;;;;;;13.43;10.60;;;;;;;25.23;63.65;98718.69;8358925;28;20427;-78
2022/08/16 18:14:00;;;;;;;20.73;10.70;;;;;;;25.08;64.52;98722.84;8400740;28;20124;-78
2022/08/16 18:18:01;;;;;;;18.05;9.65;;;;;;;24.94;65.31;98716.72;8398611;28;20135;-78
2022/08/16 18:22:18;;;;;;;17.42;9.38;;;;;;;24.82;65.90;98727.06;8394152;28;20197;-78
2022/08/16 18:26:19;;;;;;;10.48;7.82;;;;;;;24.71;66.12;98720.09;8397077;28;20043;-77
2022/08/16 18:30:20;;;;;;;15.48;8.02;;;;;;;24.55;67.08;98734.47;8400051;28;20056;-79
2022/08/16 18:34:21;;;;;;;11.27;8.07;;;;;;;24.40;67.83;98733.06;8399503;28;20075;-78
2022/08/16 18:38:22;;;;;;;9.85;7.45;;;;;;;24.30;67.74;98739.47;8391683;28;20045;-78
2022/08/16 18:42:23;;;;;;;11.40;7.90;;;;;;;24.13;67.94;98737.63;8346475;28;20063;-78
2022/08/16 18:46:24;;;;;;;13.95;8.63;;;;;;;24.00;68.32;98738.13;8396656;28;20075;-78
2022/08/16 18:50:25;;;;;;;13.23;8.18;;;;;;;23.83;69.39;98728.03;8340600;28;20139;-78
2022/08/16 18:54:27;;;;;;;11.55;8.15;;;;;;;23.71;69.63;98736.78;8394447;28;20127;-77